createdAt,value
2023-01-22T00:00:04.661Z,78.76
2023-01-22T00:02:39.298Z,79.02
2023-01-22T00:05:06.468Z,78.62
2023-01-22T00:07:33.219Z,79.02
2023-01-22T00:10:02.570Z,78.67
2023-01-22T00:12:29.343Z,78.94
2023-01-22T00:14:56.139Z,78.82
2023-01-22T00:17:23.099Z,78.89
2023-01-22T00:19:49.812Z,78.82
2023-01-22T00:22:16.645Z,78.80
2023-01-22T00:24:43.714Z,79.15
2023-01-22T00:27:10.664Z,79.44
2023-01-22T00:29:37.423Z,79.17
2023-01-22T00:32:04.399Z,78.84
2023-01-22T00:34:31.205Z,79.08
2023-01-22T00:36:58.112Z,79.21
2023-01-22T00:39:24.951Z,78.85
2023-01-22T00:41:52.080Z,78.84
2023-01-22T00:44:18.867Z,78.76
2023-01-22T00:46:45.722Z,79.11
2023-01-22T00:49:12.612Z,79.10
2023-01-22T00:51:39.760Z,78.73
2023-01-22T00:54:06.901Z,78.97
2023-01-22T00:56:33.899Z,78.92
2023-01-22T00:59:01.196Z,79.07
2023-01-22T01:01:28.008Z,78.94
2023-01-22T01:03:54.744Z,79.14
2023-01-22T01:06:21.657Z,79.04
2023-01-22T01:08:48.705Z,78.97
2023-01-22T01:11:16.490Z,78.81
2023-01-22T01:13:43.375Z,79.26
2023-01-22T01:16:17.625Z,78.90
2023-01-22T01:18:45.103Z,79.06
2023-01-22T01:21:12.299Z,78.98
2023-01-22T01:23:39.148Z,79.05
2023-01-22T01:26:06.723Z,78.92
2023-01-22T01:28:34.814Z,78.97
2023-01-22T01:31:02.319Z,79.01
2023-01-22T01:33:29.184Z,78.92
2023-01-22T01:36:00.140Z,78.91
2023-01-22T01:38:29.519Z,79.09
2023-01-22T01:40:56.247Z,78.80
2023-01-22T01:43:23.024Z,78.83
2023-01-22T01:45:49.870Z,78.59
2023-01-22T01:48:23.496Z,79.11
2023-01-22T01:50:55.746Z,79.01
2023-01-22T01:53:22.540Z,78.93
2023-01-22T01:55:49.368Z,79.07
2023-01-22T01:58:21.622Z,79.04
2023-01-22T02:00:50.390Z,78.90
2023-01-22T02:03:17.340Z,78.95
2023-01-22T02:05:44.195Z,79.31
2023-01-22T02:08:11.678Z,78.87
2023-01-22T02:10:38.590Z,79.28
2023-01-22T02:13:07.802Z,79.10
2023-01-22T02:15:34.767Z,79.16
2023-01-22T02:18:01.509Z,79.13
2023-01-22T02:20:28.273Z,79.04
2023-01-22T02:22:55.062Z,78.92
2023-01-22T02:25:22.048Z,78.80
2023-01-22T02:27:48.889Z,78.91
2023-01-22T02:30:16.655Z,79.14
2023-01-22T02:32:43.680Z,79.08
2023-01-22T02:35:16.966Z,79.19
2023-01-22T02:37:46.474Z,79.02
2023-01-22T02:40:13.450Z,78.99
2023-01-22T02:42:42.194Z,79.14
2023-01-22T02:45:09.226Z,78.94
2023-01-22T02:47:36.565Z,79.11
2023-01-22T02:50:05.438Z,78.94
2023-01-22T02:52:32.195Z,79.00
2023-01-22T02:54:58.948Z,79.05
2023-01-22T02:57:26.294Z,79.02
2023-01-22T02:59:53.057Z,79.25
2023-01-22T03:02:20.111Z,79.14
2023-01-22T03:04:50.314Z,79.00
2023-01-22T03:07:17.551Z,78.99
2023-01-22T03:09:45.826Z,78.93
2023-01-22T03:12:12.787Z,78.97
2023-01-22T03:14:59.038Z,78.94
2023-01-22T03:17:44.567Z,79.08
2023-01-22T03:20:30.079Z,79.45
2023-01-22T03:22:56.970Z,78.94
2023-01-22T03:25:23.742Z,79.16
2023-01-22T03:28:09.282Z,78.92
2023-01-22T03:30:38.727Z,79.21
2023-01-22T03:33:07.489Z,79.02
2023-01-22T03:35:34.189Z,79.05
2023-01-22T03:38:12.206Z,79.08
2023-01-22T03:40:39.804Z,79.00
2023-01-22T03:43:06.937Z,79.38
2023-01-22T03:45:34.317Z,79.03
2023-01-22T03:48:02.426Z,79.04
2023-01-22T03:50:34.934Z,78.96
2023-01-22T03:53:04.223Z,79.29
2023-01-22T03:55:32.197Z,79.31
2023-01-22T03:57:59.037Z,79.11
2023-01-22T04:00:25.883Z,79.13
2023-01-22T04:02:53.861Z,78.97
2023-01-22T04:05:25.205Z,79.04
2023-01-22T04:07:52.107Z,79.16
2023-01-22T04:10:23.534Z,78.92
2023-01-22T04:12:50.331Z,79.15
2023-01-22T04:15:20.148Z,79.30
2023-01-22T04:17:47.948Z,79.06
2023-01-22T04:20:31.044Z,79.20
2023-01-22T04:23:06.151Z,79.24
2023-01-22T04:25:34.336Z,79.36
2023-01-22T04:28:01.135Z,79.38
2023-01-22T04:30:28.048Z,79.24
2023-01-22T04:33:04.763Z,78.94
2023-01-22T04:35:43.372Z,79.02
2023-01-22T04:38:12.037Z,79.14
2023-01-22T04:40:38.811Z,79.30
2023-01-22T04:43:06.380Z,79.14
2023-01-22T04:45:33.263Z,79.58
2023-01-22T04:48:00.193Z,79.61
2023-01-22T04:50:28.003Z,79.46
2023-01-22T04:52:55.521Z,79.32
2023-01-22T04:55:22.514Z,79.43
2023-01-22T04:58:15.399Z,79.85
2023-01-22T05:00:42.272Z,79.50
2023-01-22T05:03:10.314Z,79.47
2023-01-22T05:05:37.028Z,79.62
2023-01-22T05:08:03.971Z,79.75
2023-01-22T05:10:33.050Z,79.62
2023-01-22T05:13:02.444Z,79.49
2023-01-22T05:15:29.544Z,79.54
2023-01-22T05:18:00.296Z,79.26
2023-01-22T05:20:27.700Z,79.81
2023-01-22T05:22:54.542Z,79.41
2023-01-22T05:25:24.384Z,79.71
2023-01-22T05:27:51.143Z,79.63
2023-01-22T05:30:51.006Z,79.85
2023-01-22T05:33:35.488Z,79.88
2023-01-22T05:36:03.535Z,79.84
2023-01-22T05:38:31.343Z,79.77
2023-01-22T05:40:58.384Z,80.00
2023-01-22T05:43:26.950Z,79.84
2023-01-22T05:46:02.788Z,79.99
2023-01-22T05:48:44.457Z,79.60
2023-01-22T05:51:14.965Z,79.71
2023-01-22T05:53:42.334Z,79.84
2023-01-22T05:56:09.788Z,80.00
2023-01-22T05:58:38.738Z,79.81
2023-01-22T06:01:06.372Z,79.88
2023-01-22T06:03:40.100Z,80.13
2023-01-22T06:06:08.156Z,79.93
2023-01-22T06:08:35.132Z,79.91
2023-01-22T06:11:08.900Z,80.16
2023-01-22T06:13:35.740Z,80.23
2023-01-22T06:16:10.861Z,80.15
2023-01-22T06:18:55.973Z,80.19
2023-01-22T06:21:26.106Z,79.75
2023-01-22T06:23:54.098Z,80.11
2023-01-22T06:26:21.062Z,80.11
2023-01-22T06:28:47.919Z,80.19
2023-01-22T06:31:14.885Z,80.01
2023-01-22T06:33:48.201Z,80.21
2023-01-22T06:36:18.401Z,79.94
2023-01-22T06:38:45.466Z,80.04
2023-01-22T06:41:18.867Z,80.04
2023-01-22T06:43:48.049Z,80.16
2023-01-22T06:46:15.178Z,80.15
2023-01-22T06:49:01.736Z,79.77
2023-01-22T06:51:29.529Z,80.33
2023-01-22T06:53:56.328Z,80.37
2023-01-22T06:56:23.625Z,80.11
2023-01-22T06:58:54.117Z,80.15
2023-01-22T07:01:21.075Z,80.43
2023-01-22T07:03:47.909Z,79.89
2023-01-22T07:06:18.009Z,80.39
2023-01-22T07:08:44.953Z,80.18
2023-01-22T07:11:12.021Z,80.27
2023-01-22T07:13:38.760Z,80.28
2023-01-22T07:16:06.021Z,79.91
2023-01-22T07:18:32.860Z,80.25
2023-01-22T07:21:03.195Z,80.39
2023-01-22T07:23:30.267Z,80.59
2023-01-22T07:25:57.207Z,80.49
2023-01-22T07:28:24.036Z,80.27
2023-01-22T07:30:51.022Z,79.94
2023-01-22T07:33:22.618Z,80.14
2023-01-22T07:36:18.241Z,80.31
2023-01-22T07:38:46.822Z,79.89
2023-01-22T07:41:25.595Z,79.89
2023-01-22T07:43:53.700Z,80.76
2023-01-22T07:46:20.593Z,80.39
2023-01-22T07:48:47.403Z,80.54
2023-01-22T07:51:14.296Z,80.50
2023-01-22T07:53:42.982Z,80.39
2023-01-22T07:56:09.784Z,80.13
2023-01-22T07:58:36.497Z,80.43
2023-01-22T08:01:07.261Z,80.54
2023-01-22T08:03:34.207Z,80.48
2023-01-22T08:06:01.062Z,80.76
2023-01-22T08:08:27.914Z,79.88
2023-01-22T08:10:58.041Z,80.50
2023-01-22T08:13:24.888Z,80.44
2023-01-22T08:15:51.765Z,80.45
2023-01-22T08:18:22.822Z,80.60
2023-01-22T08:20:49.884Z,80.16
2023-01-22T08:23:16.679Z,80.30
2023-01-22T08:25:43.483Z,80.54
2023-01-22T08:28:10.352Z,80.61
2023-01-22T08:30:46.081Z,80.73
2023-01-22T08:33:16.040Z,80.73
2023-01-22T08:35:42.988Z,80.22
2023-01-22T08:38:09.894Z,80.52
2023-01-22T08:40:38.091Z,80.69
2023-01-22T08:43:05.017Z,80.50
2023-01-22T08:45:33.333Z,80.45
2023-01-22T08:48:00.482Z,80.08
2023-01-22T08:50:27.975Z,80.34
2023-01-22T08:52:56.171Z,80.27
2023-01-22T08:55:23.083Z,80.26
2023-01-22T08:57:56.365Z,80.33
2023-01-22T09:00:23.280Z,80.63
2023-01-22T09:02:50.090Z,80.55
2023-01-22T09:05:16.892Z,80.54
2023-01-22T09:07:43.704Z,80.68
2023-01-22T09:10:13.037Z,80.44
2023-01-22T09:12:40.247Z,80.66
2023-01-22T09:15:07.545Z,80.53
2023-01-22T09:17:34.372Z,80.71
2023-01-22T09:20:06.641Z,81.07
2023-01-22T09:22:33.500Z,80.96
2023-01-22T09:25:00.378Z,80.96
2023-01-22T09:27:27.244Z,80.42
2023-01-22T09:29:54.118Z,80.77
2023-01-22T09:32:20.986Z,80.77
2023-01-22T09:34:47.759Z,80.77
2023-01-22T09:37:15.542Z,80.67
2023-01-22T09:39:42.326Z,80.67
2023-01-22T09:42:10.608Z,80.71
2023-01-22T09:44:38.427Z,80.84
2023-01-22T09:47:07.152Z,80.65
2023-01-22T09:49:49.534Z,80.46
2023-01-22T09:52:16.590Z,80.47
2023-01-22T09:55:12.278Z,80.74
2023-01-22T10:01:49.646Z,80.60
2023-01-22T10:04:27.460Z,80.71
2023-01-22T10:06:55.357Z,80.85
2023-01-22T10:09:40.775Z,80.86
2023-01-22T10:12:13.946Z,80.87
2023-01-22T10:14:41.339Z,80.80
2023-01-22T10:17:19.259Z,80.65
2023-01-22T10:19:47.095Z,80.90
2023-01-22T10:22:15.969Z,80.86
2023-01-22T10:24:45.159Z,80.90
2023-01-22T10:27:12.963Z,80.78
2023-01-22T10:29:39.887Z,81.14
2023-01-22T10:32:17.249Z,81.45
2023-01-22T10:34:44.139Z,81.41
2023-01-22T10:37:15.266Z,81.13
2023-01-22T10:39:42.868Z,81.17
2023-01-22T10:42:19.502Z,81.41
2023-01-22T10:44:46.584Z,80.75
2023-01-22T10:47:21.016Z,80.88
2023-01-22T10:49:48.464Z,81.13
2023-01-22T10:52:19.219Z,81.44
2023-01-22T10:54:47.159Z,81.13
2023-01-22T10:57:21.457Z,81.43
2023-01-22T10:59:52.437Z,81.21
2023-01-22T11:02:22.060Z,81.21
2023-01-22T11:04:48.945Z,81.07
2023-01-22T11:07:26.913Z,80.87
2023-01-22T11:10:13.017Z,81.38
2023-01-22T11:12:41.585Z,80.72
2023-01-22T11:15:17.497Z,80.50
2023-01-22T11:17:45.469Z,81.17
2023-01-22T11:20:23.219Z,81.19
2023-01-22T11:23:13.692Z,81.03
2023-01-22T11:25:54.082Z,81.22
2023-01-22T11:28:28.445Z,80.96
2023-01-22T11:31:01.732Z,81.86
2023-01-22T11:33:50.207Z,81.00
2023-01-22T11:36:19.810Z,81.17
2023-01-22T11:38:53.931Z,81.22
2023-01-22T11:41:20.675Z,80.94
2023-01-22T11:43:55.860Z,81.07
2023-01-22T11:46:43.051Z,80.92
2023-01-22T11:49:13.744Z,80.86
2023-01-22T11:51:59.124Z,80.46
2023-01-22T11:54:33.100Z,80.79
2023-01-22T11:56:59.886Z,80.61
2023-01-22T11:59:26.635Z,81.11
2023-01-22T12:02:02.790Z,80.84
2023-01-22T12:04:48.420Z,81.43
2023-01-22T12:07:25.380Z,81.11
2023-01-22T12:10:07.510Z,80.88
2023-01-22T12:12:41.679Z,80.99
2023-01-22T12:15:26.985Z,81.13
2023-01-22T12:18:22.906Z,81.04
2023-01-22T12:20:52.923Z,81.11
2023-01-22T12:23:22.736Z,81.09
2023-01-22T12:26:05.184Z,80.92
2023-01-22T12:28:51.697Z,80.94
2023-01-22T12:31:27.181Z,80.73
2023-01-22T12:33:56.643Z,81.43
2023-01-22T12:36:25.831Z,81.02
2023-01-22T12:39:11.691Z,80.86
2023-01-22T12:42:09.984Z,80.93
2023-01-22T12:44:46.835Z,80.84
2023-01-22T12:47:21.497Z,80.90
2023-01-22T12:49:49.274Z,80.95
2023-01-22T12:52:33.524Z,80.62
2023-01-22T12:55:05.612Z,81.55
2023-01-22T12:57:38.064Z,80.91
2023-01-22T13:00:27.665Z,80.80
2023-01-22T13:03:33.449Z,81.46
2023-01-22T13:06:04.969Z,81.40
2023-01-22T13:08:37.099Z,81.10
2023-01-22T13:11:36.932Z,80.96
2023-01-22T13:14:23.240Z,81.04
2023-01-22T13:16:59.585Z,81.20
2023-01-22T13:19:33.051Z,81.15
2023-01-22T13:28:25.786Z,80.91
2023-01-22T13:31:03.430Z,81.59
2023-01-22T13:33:30.404Z,81.09
2023-01-22T13:35:57.919Z,81.25
2023-01-22T13:38:25.882Z,81.27
2023-01-22T13:40:59.632Z,81.33
2023-01-22T13:47:28.613Z,81.46
2023-01-22T13:49:56.501Z,81.40
2023-01-22T13:52:23.314Z,80.89
2023-01-22T13:55:00.585Z,81.46
2023-01-22T13:57:27.642Z,81.20
2023-01-22T13:59:55.346Z,81.20
2023-01-22T14:02:34.847Z,81.04
2023-01-22T14:05:06.224Z,81.44
2023-01-22T14:07:35.493Z,81.67
2023-01-22T14:10:13.407Z,81.45
2023-01-22T14:12:41.429Z,81.13
2023-01-22T14:15:22.736Z,81.14
2023-01-22T14:18:03.290Z,81.26
2023-01-22T14:20:38.105Z,81.10
2023-01-22T14:23:07.762Z,81.40
2023-01-22T14:25:40.250Z,81.64
2023-01-22T14:28:07.469Z,81.63
2023-01-22T14:30:38.928Z,81.41
2023-01-22T14:33:06.117Z,81.57
2023-01-22T14:35:40.293Z,81.73
2023-01-22T14:40:57.419Z,81.82
2023-01-22T14:43:29.749Z,81.37
2023-01-22T14:46:24.903Z,81.45
2023-01-22T14:48:57.197Z,81.51
2023-01-22T14:51:28.355Z,81.58
2023-01-22T14:54:10.491Z,81.31
2023-01-22T14:59:38.334Z,81.45
2023-01-22T15:02:05.365Z,81.51
2023-01-22T15:14:00.505Z,81.14
2023-01-22T15:19:53.899Z,81.63
2023-01-22T15:22:48.188Z,80.83
2023-01-22T15:25:31.907Z,81.19
2023-01-22T15:32:29.212Z,81.67
2023-01-22T15:35:11.370Z,81.04
2023-01-22T15:37:56.144Z,81.03
